Baigorrita, Argentina
Current Conditions -  °F | °C
As of 1:00 PM on Thursday 30 Oct 2014 (Local Time) from SAAR Reporting Station
Clear Clear  
Wind Chill: 23°   Ceiling: Unl
Heat Index: 23°   Visibility: 6mi
Dew Point: 13°   Wind: 12mph
Humidity: 53%   Direction: 110°ESE
Pressure: 29.83"   Gusts: NA
Location:  34.75°S, 60.91°W
Report Text: SAAR 301600Z 11010KT CAVOK 23/13 Q1010
Loading
Personal Weather Stations






























Interactive Weather Map
Tropical Storm Tracking
New forecast layout! Learn more

10-Day Weather Forecast

Advertisements
Track Severe Weather on mobile